createdAt,value
2022-11-04T00:02:10.554Z,7.47
2022-11-04T00:04:38.138Z,7.51
2022-11-04T00:07:25.868Z,7.48
2022-11-04T00:09:53.546Z,7.41
2022-11-04T00:12:27.486Z,7.43
2022-11-04T00:15:15.147Z,7.34
2022-11-04T00:17:42.896Z,7.42
2022-11-04T00:20:29.234Z,7.43
2022-11-04T00:23:16.599Z,7.36
2022-11-04T00:26:02.860Z,7.36
2022-11-04T00:28:42.864Z,7.32
2022-11-04T00:31:29.442Z,7.42
2022-11-04T00:33:58.833Z,7.40
2022-11-04T00:36:26.813Z,7.42
2022-11-04T00:38:54.437Z,7.43
2022-11-04T00:41:29.043Z,7.42
2022-11-04T00:44:01.939Z,7.40
2022-11-04T00:46:31.685Z,7.43
2022-11-04T00:48:59.799Z,7.51
2022-11-04T00:51:28.207Z,7.39
2022-11-04T00:53:58.963Z,7.38
2022-11-04T00:56:28.021Z,7.47
2022-11-04T00:58:55.673Z,7.49
2022-11-04T01:01:23.400Z,7.51
2022-11-04T01:03:53.230Z,7.51
2022-11-04T01:06:24.217Z,7.52
2022-11-04T01:09:04.590Z,7.49
2022-11-04T01:11:32.499Z,7.44
2022-11-04T01:14:00.287Z,7.38
2022-11-04T01:16:29.822Z,7.50
2022-11-04T01:18:58.059Z,7.47
2022-11-04T01:21:25.668Z,7.44
2022-11-04T01:23:53.510Z,7.45
2022-11-04T01:26:23.482Z,7.43
2022-11-04T01:28:54.706Z,7.43
2022-11-04T01:31:25.447Z,7.50
2022-11-04T01:33:55.995Z,7.54
2022-11-04T01:36:26.558Z,7.53
2022-11-04T01:38:57.504Z,7.62
2022-11-04T01:41:28.704Z,7.66
2022-11-04T01:44:16.608Z,7.55
2022-11-04T01:46:51.013Z,7.48
2022-11-04T01:49:50.670Z,7.45
2022-11-04T01:52:25.433Z,7.48
2022-11-04T01:54:55.921Z,7.49
2022-11-04T01:57:30.668Z,7.52
2022-11-04T02:00:01.604Z,7.51
2022-11-04T02:02:50.006Z,7.48
2022-11-04T02:05:18.647Z,7.32
2022-11-04T02:07:52.137Z,7.24
2022-11-04T02:10:23.547Z,7.15
2022-11-04T02:12:52.360Z,7.18
2022-11-04T02:15:40.662Z,7.23
2022-11-04T02:18:17.194Z,7.22
2022-11-04T02:20:59.996Z,7.15
2022-11-04T02:23:59.180Z,7.16
2022-11-04T02:27:18.087Z,7.26
2022-11-04T02:29:57.190Z,7.25
2022-11-04T02:32:51.772Z,7.32
2022-11-04T02:35:25.725Z,7.31
2022-11-04T02:38:24.212Z,7.23
2022-11-04T02:40:52.084Z,7.19
2022-11-04T02:43:36.316Z,7.10
2022-11-04T02:46:46.316Z,7.21
2022-11-04T02:49:21.018Z,7.26
2022-11-04T02:52:03.135Z,7.25
2022-11-04T02:54:42.301Z,7.24
2022-11-04T02:57:16.131Z,7.22
2022-11-04T03:00:02.053Z,7.37
2022-11-04T03:02:44.554Z,7.34
2022-11-04T03:05:20.447Z,7.22
2022-11-04T03:07:52.813Z,7.17
2022-11-04T03:10:29.000Z,7.22
2022-11-04T03:13:07.113Z,7.17
2022-11-04T03:15:38.824Z,7.15
2022-11-04T03:18:21.502Z,7.25
2022-11-04T03:20:51.244Z,7.32
2022-11-04T03:23:19.665Z,7.28
2022-11-04T03:25:50.959Z,7.16
2022-11-04T03:28:41.611Z,7.13
2022-11-04T03:31:18.035Z,7.22
2022-11-04T03:33:50.494Z,7.30
2022-11-04T03:36:19.815Z,7.26
2022-11-04T03:38:50.734Z,7.31
2022-11-04T03:41:25.814Z,7.32
2022-11-04T03:43:53.479Z,7.37
2022-11-04T03:46:22.544Z,7.26
2022-11-04T03:48:53.248Z,7.19
2022-11-04T03:51:21.030Z,7.16
2022-11-04T03:53:48.970Z,7.23
2022-11-04T03:56:35.520Z,7.32
2022-11-04T03:59:18.113Z,7.37
2022-11-04T04:01:57.382Z,7.31
2022-11-04T04:04:39.007Z,7.18
2022-11-04T04:07:16.859Z,7.23
2022-11-04T04:09:55.972Z,7.24
2022-11-04T04:12:38.198Z,7.21
2022-11-04T04:15:20.024Z,7.21
2022-11-04T04:17:55.246Z,7.26
2022-11-04T04:20:25.686Z,7.23
2022-11-04T04:23:03.972Z,7.22
2022-11-04T04:25:51.333Z,7.25
2022-11-04T04:28:20.775Z,7.09
2022-11-04T04:30:48.976Z,7.11
2022-11-04T04:33:20.283Z,7.16
2022-11-04T04:35:54.380Z,7.18
2022-11-04T04:38:44.754Z,7.04
2022-11-04T04:41:39.572Z,7.09
2022-11-04T04:44:39.244Z,7.16
2022-11-04T04:47:09.633Z,7.06
2022-11-04T04:49:37.189Z,7.04
2022-11-04T04:52:08.240Z,6.99
2022-11-04T04:54:36.032Z,6.94
2022-11-04T04:57:03.909Z,6.96
2022-11-04T04:59:31.474Z,6.93
2022-11-04T05:01:59.339Z,6.84
2022-11-04T05:04:27.052Z,6.81
2022-11-04T05:06:55.826Z,6.86
2022-11-04T05:09:23.527Z,6.90
2022-11-04T05:11:51.424Z,6.89
2022-11-04T05:14:20.372Z,6.91
2022-11-04T05:16:47.953Z,6.87
2022-11-04T05:19:16.668Z,6.82
2022-11-04T05:21:44.230Z,6.84
2022-11-04T05:24:12.707Z,6.97
2022-11-04T05:26:40.577Z,7.04
2022-11-04T05:29:09.926Z,7.05
2022-11-04T05:31:37.759Z,7.08
2022-11-04T05:34:06.040Z,7.25
2022-11-04T05:36:34.145Z,7.28
2022-11-04T05:39:03.225Z,7.17
2022-11-04T05:41:31.057Z,7.20
2022-11-04T05:44:03.843Z,7.17
2022-11-04T05:46:31.940Z,7.26
2022-11-04T05:49:02.829Z,7.30
2022-11-04T05:51:30.690Z,7.22
2022-11-04T05:53:58.325Z,7.30
2022-11-04T05:56:26.410Z,7.28
2022-11-04T05:58:55.414Z,7.15
2022-11-04T06:01:30.323Z,7.22
2022-11-04T06:04:00.638Z,7.29
2022-11-04T06:06:31.370Z,7.42
2022-11-04T06:09:00.738Z,7.47
2022-11-04T06:11:30.397Z,7.47
2022-11-04T06:13:58.559Z,7.39
2022-11-04T06:16:29.551Z,7.48
2022-11-04T06:19:01.491Z,7.45
2022-11-04T06:21:34.162Z,7.43
2022-11-04T06:24:02.829Z,7.38
2022-11-04T06:26:31.446Z,7.38
2022-11-04T06:28:59.209Z,7.44
2022-11-04T06:31:26.929Z,7.45
2022-11-04T06:33:54.841Z,7.50
2022-11-04T06:36:22.827Z,7.52
2022-11-04T06:38:50.640Z,7.59
2022-11-04T06:41:19.245Z,7.59
2022-11-04T06:43:47.065Z,7.65
2022-11-04T06:46:42.004Z,7.63
2022-11-04T06:49:17.912Z,7.78
2022-11-04T06:51:48.375Z,7.85
2022-11-04T06:54:17.640Z,7.90
2022-11-04T06:56:46.254Z,7.83
2022-11-04T06:59:19.558Z,7.87
2022-11-04T07:01:49.651Z,7.92
2022-11-04T07:04:18.019Z,7.96
2022-11-04T07:06:46.647Z,8.14
2022-11-04T07:09:15.689Z,8.21
2022-11-04T07:11:45.108Z,8.15
2022-11-04T07:14:13.442Z,8.18
2022-11-04T07:16:41.405Z,8.13
2022-11-04T07:19:09.221Z,8.17
2022-11-04T07:21:36.838Z,8.15
2022-11-04T07:24:04.893Z,8.26
2022-11-04T07:26:32.404Z,8.38
2022-11-04T07:29:01.180Z,8.49
2022-11-04T07:31:28.941Z,8.61
2022-11-04T07:33:56.926Z,8.64
2022-11-04T07:36:24.434Z,8.69
2022-11-04T07:38:51.987Z,8.64
2022-11-04T07:41:19.802Z,8.79
2022-11-04T07:43:51.650Z,8.63
2022-11-04T07:46:20.525Z,8.59
2022-11-04T07:48:48.357Z,8.62
2022-11-04T07:51:18.086Z,8.60
2022-11-04T07:53:46.748Z,8.54
2022-11-04T07:56:14.768Z,8.60
2022-11-04T07:58:43.272Z,8.74
2022-11-04T08:01:16.606Z,8.74
2022-11-04T08:03:44.543Z,8.59
2022-11-04T08:06:14.493Z,8.45
2022-11-04T08:08:44.880Z,8.27
2022-11-04T08:11:17.747Z,8.23
2022-11-04T08:13:47.686Z,8.07
2022-11-04T08:16:19.045Z,8.18
2022-11-04T08:18:52.342Z,8.23
2022-11-04T08:21:21.238Z,8.00
2022-11-04T08:23:51.473Z,7.94
2022-11-04T08:26:20.354Z,7.96
2022-11-04T08:28:48.269Z,7.94
2022-11-04T08:31:25.426Z,8.03
2022-11-04T08:33:54.864Z,8.00
2022-11-04T08:36:31.992Z,8.15
2022-11-04T08:39:03.253Z,8.24
2022-11-04T08:41:34.790Z,8.29
2022-11-04T08:44:04.355Z,8.34
2022-11-04T08:46:36.452Z,8.59
2022-11-04T08:49:09.695Z,8.70
2022-11-04T08:51:44.103Z,8.92
2022-11-04T08:54:12.217Z,8.76
2022-11-04T08:56:40.599Z,8.68
2022-11-04T08:59:08.648Z,8.67
2022-11-04T09:01:37.050Z,8.62
2022-11-04T09:04:05.893Z,8.65
2022-11-04T09:06:39.780Z,8.65
2022-11-04T09:09:09.893Z,8.75
2022-11-04T09:11:40.842Z,8.81
2022-11-04T09:14:11.838Z,8.74
2022-11-04T09:16:41.817Z,8.86
2022-11-04T09:19:19.207Z,8.97
2022-11-04T09:21:48.360Z,9.12
2022-11-04T09:24:15.926Z,9.14
2022-11-04T09:26:44.812Z,9.12
2022-11-04T09:29:12.351Z,9.16
2022-11-04T09:31:40.500Z,9.28
2022-11-04T09:34:09.229Z,9.22
2022-11-04T09:36:38.332Z,9.15
2022-11-04T09:39:06.087Z,9.19
2022-11-04T09:41:52.808Z,9.26
2022-11-04T09:44:29.283Z,9.39
2022-11-04T09:47:04.543Z,9.51
2022-11-04T09:49:39.446Z,9.62
2022-11-04T09:52:19.234Z,9.61
2022-11-04T09:55:12.194Z,9.59
2022-11-04T09:57:40.111Z,9.74
2022-11-04T10:00:16.143Z,9.83
2022-11-04T10:02:52.664Z,9.81
2022-11-04T10:06:00.387Z,9.98
2022-11-04T10:08:46.047Z,10.04
2022-11-04T10:11:36.230Z,10.18
2022-11-04T10:14:31.393Z,10.18
2022-11-04T10:17:14.192Z,10.33
2022-11-04T10:19:48.249Z,10.23
2022-11-04T10:22:29.227Z,10.30
2022-11-04T10:25:16.587Z,10.28
2022-11-04T10:27:47.357Z,10.31
2022-11-04T10:30:21.530Z,10.28
2022-11-04T10:33:16.810Z,10.27
2022-11-04T10:35:50.113Z,10.14
2022-11-04T10:38:45.314Z,10.27
2022-11-04T10:41:30.165Z,10.36
2022-11-04T10:44:09.135Z,10.49
2022-11-04T10:46:44.196Z,10.41
2022-11-04T10:50:06.857Z,10.50
2022-11-04T10:52:35.479Z,10.58
2022-11-04T10:55:04.270Z,10.63
2022-11-04T10:57:32.975Z,10.68
2022-11-04T11:00:03.381Z,10.66
2022-11-04T11:02:38.618Z,10.68
2022-11-04T11:05:18.506Z,10.76
2022-11-04T11:07:54.856Z,10.74
2022-11-04T11:10:29.820Z,10.79
2022-11-04T11:13:08.206Z,10.91
2022-11-04T11:15:38.794Z,11.12
2022-11-04T11:18:06.539Z,11.19
2022-11-04T11:20:37.833Z,11.16
2022-11-04T11:23:10.140Z,11.31
2022-11-04T11:25:59.725Z,11.16
2022-11-04T11:28:27.996Z,11.09
2022-11-04T11:30:58.900Z,11.13
2022-11-04T11:33:38.288Z,11.04
2022-11-04T11:36:31.329Z,11.05
2022-11-04T11:39:01.426Z,11.11
2022-11-04T11:41:31.761Z,11.30
2022-11-04T11:44:07.802Z,11.11
2022-11-04T11:46:38.155Z,11.11
2022-11-04T11:49:22.890Z,11.20
2022-11-04T11:51:50.914Z,11.00
2022-11-04T11:54:33.874Z,11.06
2022-11-04T11:57:25.533Z,11.11
2022-11-04T12:03:03.117Z,11.18
2022-11-04T12:11:32.367Z,11.38
2022-11-04T12:14:05.899Z,11.47
2022-11-04T12:16:57.131Z,11.36
2022-11-04T12:19:37.919Z,11.33
2022-11-04T12:22:32.822Z,11.21
2022-11-04T12:25:23.010Z,11.15
2022-11-04T12:28:24.395Z,11.13
2022-11-04T12:31:17.638Z,11.08
2022-11-04T12:34:20.554Z,11.11
2022-11-04T12:37:04.334Z,11.28
2022-11-04T12:39:56.580Z,11.37
2022-11-04T12:42:51.299Z,11.39
2022-11-04T12:45:46.605Z,11.29
2022-11-04T12:48:55.893Z,11.33
2022-11-04T12:51:31.732Z,11.22
2022-11-04T12:54:23.753Z,11.14
2022-11-04T12:57:09.097Z,11.15
2022-11-04T13:00:06.400Z,11.14
2022-11-04T13:02:40.906Z,11.19
2022-11-04T13:05:13.997Z,11.18
2022-11-04T13:07:59.184Z,11.07
2022-11-04T13:10:55.829Z,10.84
2022-11-04T13:13:33.290Z,10.75
2022-11-04T13:16:12.467Z,10.76
2022-11-04T13:18:41.438Z,10.85
2022-11-04T13:21:18.508Z,10.69
2022-11-04T13:24:14.628Z,10.57
2022-11-04T13:26:42.533Z,10.58
2022-11-04T13:29:16.115Z,10.55
2022-11-04T13:31:51.273Z,10.54
2022-11-04T13:34:37.711Z,10.49
2022-11-04T13:37:16.880Z,10.50
2022-11-04T13:39:46.587Z,10.48
2022-11-04T13:43:27.119Z,10.47
2022-11-04T13:45:56.778Z,10.59
2022-11-04T13:48:29.182Z,10.52
2022-11-04T13:51:00.987Z,10.60
2022-11-04T13:53:57.913Z,10.63
2022-11-04T13:56:45.807Z,10.63
2022-11-04T13:59:34.028Z,10.62
2022-11-04T14:02:19.974Z,10.64
2022-11-04T14:04:47.918Z,10.68
2022-11-04T14:07:18.173Z,10.56
2022-11-04T14:09:54.809Z,10.48
2022-11-04T14:12:30.870Z,10.49
2022-11-04T14:15:10.837Z,10.45
2022-11-04T14:17:38.710Z,10.41
2022-11-04T14:20:06.682Z,10.32
2022-11-04T14:22:49.530Z,10.32
2022-11-04T14:25:41.344Z,10.27
2022-11-04T14:28:15.138Z,10.24
2022-11-04T14:30:53.831Z,10.23
2022-11-04T14:33:23.353Z,10.25
2022-11-04T14:35:53.813Z,10.20
2022-11-04T14:38:34.049Z,10.21
2022-11-04T14:41:22.849Z,10.20
2022-11-04T14:43:52.498Z,10.14
2022-11-04T14:46:40.626Z,10.13
2022-11-04T14:49:52.219Z,10.12
2022-11-04T14:52:46.253Z,10.00
2022-11-04T14:55:24.437Z,10.03
2022-11-04T14:58:13.808Z,10.12
2022-11-04T15:00:50.669Z,10.03
2022-11-04T15:04:08.827Z,10.05
2022-11-04T15:06:11.151Z,10.06
2022-11-04T15:08:44.642Z,10.00
2022-11-04T15:11:17.724Z,10.00
2022-11-04T15:13:49.330Z,9.97
2022-11-04T15:16:28.802Z,9.96
2022-11-04T15:18:59.336Z,10.03
2022-11-04T15:21:32.034Z,10.05
2022-11-04T15:24:01.709Z,10.05
2022-11-04T15:26:34.949Z,10.12
2022-11-04T15:29:09.618Z,10.00
2022-11-04T15:31:50.634Z,9.96
2022-11-04T15:34:19.295Z,9.96
2022-11-04T15:36:49.418Z,10.00
2022-11-04T15:39:26.764Z,9.96
2022-11-04T15:42:18.339Z,10.13
2022-11-04T15:44:50.324Z,10.06
2022-11-04T15:47:18.180Z,10.04
2022-11-04T15:49:48.030Z,10.03
2022-11-04T15:52:17.998Z,10.01
2022-11-04T15:54:51.798Z,9.99
2022-11-04T15:57:33.055Z,10.00
2022-11-04T16:00:07.372Z,10.00
2022-11-04T16:03:01.190Z,9.96
2022-11-04T16:05:33.401Z,9.94
2022-11-04T16:08:33.887Z,9.97
2022-11-04T16:11:16.797Z,9.96
2022-11-04T16:13:45.588Z,9.96
2022-11-04T16:16:27.901Z,9.87
2022-11-04T16:18:59.420Z,9.93
2022-11-04T16:21:33.528Z,9.95
2022-11-04T16:24:17.624Z,10.00
2022-11-04T16:26:46.841Z,9.95
2022-11-04T16:29:22.819Z,9.93
2022-11-04T16:32:08.531Z,10.00
2022-11-04T16:34:37.467Z,10.01
2022-11-04T16:37:05.191Z,9.90
2022-11-04T16:39:33.304Z,10.03
2022-11-04T16:42:00.969Z,10.03
2022-11-04T16:44:28.793Z,10.04
2022-11-04T16:46:59.556Z,9.87
2022-11-04T16:49:27.219Z,9.89
2022-11-04T16:51:57.089Z,9.92
2022-11-04T16:54:25.139Z,9.89
2022-11-04T16:56:54.564Z,9.95
2022-11-04T16:59:22.544Z,9.92
2022-11-04T17:01:50.201Z,9.89
2022-11-04T17:04:17.859Z,9.80
2022-11-04T17:06:46.401Z,9.90
2022-11-04T17:09:20.645Z,9.97
2022-11-04T17:11:49.427Z,9.82
2022-11-04T17:14:18.008Z,9.79
2022-11-04T17:16:46.848Z,9.92
2022-11-04T17:19:17.634Z,9.93
2022-11-04T17:21:47.278Z,9.85
2022-11-04T17:24:15.018Z,9.82
2022-11-04T17:26:43.816Z,9.81
2022-11-04T17:29:15.991Z,9.88
2022-11-04T17:31:45.446Z,9.80
2022-11-04T17:34:13.070Z,9.76
2022-11-04T17:36:41.692Z,9.76
2022-11-04T17:39:09.328Z,9.81
2022-11-04T17:41:55.615Z,9.76
2022-11-04T17:44:23.322Z,9.68
2022-11-04T17:46:51.618Z,9.66
2022-11-04T17:49:24.694Z,9.64
2022-11-04T17:51:58.589Z,9.63
2022-11-04T17:54:28.865Z,9.65
2022-11-04T17:56:57.779Z,9.71
2022-11-04T17:59:25.916Z,9.78
2022-11-04T18:01:53.918Z,9.68
2022-11-04T18:04:23.340Z,9.72
2022-11-04T18:06:51.276Z,9.66
2022-11-04T18:09:19.025Z,9.70
2022-11-04T18:12:06.336Z,9.69
2022-11-04T18:14:34.008Z,9.71
2022-11-04T18:17:03.165Z,9.74
2022-11-04T18:19:31.428Z,9.77
2022-11-04T18:22:00.886Z,9.69
2022-11-04T18:24:29.063Z,9.70
2022-11-04T18:26:59.469Z,9.73
2022-11-04T18:29:27.657Z,9.69
2022-11-04T18:31:55.898Z,9.63
2022-11-04T18:34:23.559Z,9.58
2022-11-04T18:36:51.559Z,9.63
2022-11-04T18:39:19.680Z,9.69
2022-11-04T18:41:47.445Z,9.68
2022-11-04T18:44:20.437Z,9.75
2022-11-04T18:46:49.762Z,9.70
2022-11-04T18:49:18.417Z,9.57
2022-11-04T18:51:47.147Z,9.59
2022-11-04T18:54:15.166Z,9.63
2022-11-04T18:56:42.787Z,9.60
2022-11-04T18:59:12.954Z,9.64
2022-11-04T19:01:42.321Z,9.53
2022-11-04T19:04:10.167Z,9.63
2022-11-04T19:06:41.792Z,9.68
2022-11-04T19:09:45.277Z,9.71
2022-11-04T19:12:19.003Z,9.66
2022-11-04T19:14:46.773Z,9.62
2022-11-04T19:17:15.055Z,9.63
2022-11-04T19:19:43.681Z,9.60
2022-11-04T19:22:11.824Z,9.63
2022-11-04T19:24:39.894Z,9.60
2022-11-04T19:27:08.655Z,9.63
2022-11-04T19:29:36.339Z,9.65
2022-11-04T19:32:06.260Z,9.61
2022-11-04T19:34:37.470Z,9.61
2022-11-04T19:37:05.347Z,9.57
2022-11-04T19:39:32.921Z,9.56
2022-11-04T19:42:19.190Z,9.59
2022-11-04T19:44:46.867Z,9.58
2022-11-04T19:47:14.770Z,9.54
2022-11-04T19:49:42.455Z,9.60
2022-11-04T19:52:10.012Z,9.64
2022-11-04T19:54:37.673Z,9.60
2022-11-04T19:57:05.915Z,9.56
2022-11-04T19:59:33.563Z,9.58
2022-11-04T20:02:01.472Z,9.52
2022-11-04T20:04:29.612Z,9.56
2022-11-04T20:06:57.143Z,9.55
2022-11-04T20:09:26.179Z,9.53
2022-11-04T20:12:12.257Z,9.53
2022-11-04T20:14:42.542Z,9.53
2022-11-04T20:17:12.557Z,9.51
2022-11-04T20:19:40.391Z,9.44
2022-11-04T20:22:08.036Z,9.44
2022-11-04T20:24:35.718Z,9.41
2022-11-04T20:27:03.560Z,9.45
2022-11-04T20:29:31.367Z,9.40
2022-11-04T20:31:59.212Z,9.46
2022-11-04T20:34:32.553Z,9.39
2022-11-04T20:37:01.094Z,9.35
2022-11-04T20:39:28.913Z,9.31
2022-11-04T20:41:56.736Z,9.33
2022-11-04T20:44:24.838Z,9.33
2022-11-04T20:46:52.523Z,9.39
2022-11-04T20:49:20.252Z,9.35
2022-11-04T20:51:54.645Z,9.34
2022-11-04T20:54:23.475Z,9.34
2022-11-04T20:56:51.867Z,9.38
2022-11-04T20:59:19.572Z,9.30
2022-11-04T21:01:48.794Z,9.28
2022-11-04T21:04:20.781Z,9.30
2022-11-04T21:06:51.295Z,9.24
2022-11-04T21:09:21.267Z,9.28
2022-11-04T21:11:52.938Z,9.31
2022-11-04T21:14:21.943Z,9.31
2022-11-04T21:16:50.059Z,9.29
2022-11-04T21:19:17.907Z,9.29
2022-11-04T21:21:46.918Z,9.23
2022-11-04T21:24:15.919Z,9.30
2022-11-04T21:26:44.501Z,9.29
2022-11-04T21:29:15.268Z,9.26
2022-11-04T21:31:44.602Z,9.22
2022-11-04T21:34:12.562Z,9.21
2022-11-04T21:36:40.642Z,9.29
2022-11-04T21:39:11.165Z,9.28
2022-11-04T21:41:39.360Z,9.30
2022-11-04T21:44:09.963Z,9.30
2022-11-04T21:46:38.200Z,9.21
2022-11-04T21:49:06.221Z,9.15
2022-11-04T21:51:34.861Z,9.17
2022-11-04T21:54:06.311Z,9.18
2022-11-04T21:56:34.826Z,9.23
2022-11-04T21:59:03.453Z,9.24
2022-11-04T22:01:33.124Z,9.23
2022-11-04T22:04:02.000Z,9.24
2022-11-04T22:06:34.622Z,9.22
2022-11-04T22:09:07.119Z,9.28
2022-11-04T22:11:37.380Z,9.30
2022-11-04T22:14:08.250Z,9.31
2022-11-04T22:16:38.824Z,9.23
2022-11-04T22:19:13.686Z,9.24
2022-11-04T22:21:43.898Z,9.25
2022-11-04T22:24:13.331Z,9.16
2022-11-04T22:26:41.256Z,9.14
2022-11-04T22:29:09.463Z,9.16
2022-11-04T22:31:41.147Z,9.20
2022-11-04T22:34:11.513Z,9.20
2022-11-04T22:36:40.305Z,9.27
2022-11-04T22:39:15.031Z,9.23
2022-11-04T22:41:46.363Z,9.30
2022-11-04T22:44:15.162Z,9.34
2022-11-04T22:46:42.956Z,9.36
2022-11-04T22:49:13.071Z,9.43
2022-11-04T22:51:42.212Z,9.32
2022-11-04T22:54:10.374Z,9.36
2022-11-04T22:56:38.159Z,9.41
2022-11-04T22:59:05.883Z,9.40
2022-11-04T23:01:34.167Z,9.44
2022-11-04T23:04:02.165Z,9.56
2022-11-04T23:06:30.281Z,9.56
2022-11-04T23:09:01.151Z,9.45
2022-11-04T23:11:49.432Z,9.53
2022-11-04T23:14:40.125Z,9.43
2022-11-04T23:17:38.571Z,9.33
2022-11-04T23:20:09.924Z,9.46
2022-11-04T23:22:56.351Z,9.51
2022-11-04T23:25:24.893Z,9.39
2022-11-04T23:28:13.617Z,9.36
2022-11-04T23:30:44.603Z,9.32
2022-11-04T23:33:15.265Z,9.25
2022-11-04T23:36:06.988Z,9.39
2022-11-04T23:38:35.723Z,9.40
2022-11-04T23:41:25.390Z,9.45
2022-11-04T23:43:53.669Z,9.26
2022-11-04T23:46:43.335Z,9.26
2022-11-04T23:49:30.961Z,9.35
2022-11-04T23:52:17.544Z,9.37
2022-11-04T23:55:03.628Z,9.38
2022-11-04T23:57:50.190Z,9.49
